createdAt,value
2017-12-24T00:02:09.088Z,85.40
2017-12-24T00:04:42.828Z,85.60
2017-12-24T00:07:16.576Z,85.40
2017-12-24T00:09:51.144Z,85.60
2017-12-24T00:12:24.996Z,85.60
2017-12-24T00:14:58.824Z,85.70
2017-12-24T00:17:33.650Z,85.60
2017-12-24T00:20:07.364Z,85.60
2017-12-24T00:22:41.468Z,85.70
2017-12-24T00:25:15.252Z,85.40
2017-12-24T00:27:49.096Z,85.70
2017-12-24T00:30:22.693Z,85.60
2017-12-24T00:32:57.192Z,85.80
2017-12-24T00:35:30.917Z,85.70
2017-12-24T00:38:04.649Z,85.70
2017-12-24T00:40:38.404Z,86.00
2017-12-24T00:43:12.918Z,85.90
2017-12-24T00:45:46.615Z,85.80
2017-12-24T00:48:21.168Z,85.80
2017-12-24T00:50:54.796Z,85.80
2017-12-24T00:53:28.668Z,85.50
2017-12-24T00:56:02.505Z,85.60
2017-12-24T00:58:36.318Z,85.80
2017-12-24T01:01:10.121Z,85.80
2017-12-24T01:03:44.012Z,86.00
2017-12-24T01:06:18.531Z,85.90
2017-12-24T01:08:52.342Z,85.90
2017-12-24T01:11:26.865Z,86.10
2017-12-24T01:14:01.300Z,86.30
2017-12-24T01:16:35.903Z,85.80
2017-12-24T01:19:10.498Z,85.70
2017-12-24T01:21:44.474Z,85.80
2017-12-24T01:24:19.141Z,85.60
2017-12-24T01:26:52.900Z,85.60
2017-12-24T01:29:26.700Z,85.70
2017-12-24T01:32:01.193Z,85.70
2017-12-24T01:34:35.121Z,85.70
2017-12-24T01:37:08.810Z,86.00
2017-12-24T01:39:42.619Z,85.80
2017-12-24T01:42:16.395Z,85.90
2017-12-24T01:44:50.930Z,86.30
2017-12-24T01:47:24.653Z,85.60
2017-12-24T01:49:58.457Z,85.40
2017-12-24T01:52:32.258Z,85.30
2017-12-24T01:55:06.285Z,85.30
2017-12-24T01:57:40.028Z,85.50
2017-12-24T02:00:13.985Z,85.50
2017-12-24T02:02:47.692Z,85.60
2017-12-24T02:05:21.473Z,85.40
2017-12-24T02:07:55.994Z,85.60
2017-12-24T02:10:29.840Z,85.50
2017-12-24T02:13:04.340Z,85.60
2017-12-24T02:15:38.116Z,85.60
2017-12-24T02:18:11.866Z,85.50
2017-12-24T02:20:45.696Z,85.80
2017-12-24T02:23:19.584Z,85.80
2017-12-24T02:25:54.079Z,85.50
2017-12-24T02:28:27.883Z,85.50
2017-12-24T02:31:01.680Z,85.60
2017-12-24T02:33:35.248Z,85.90
2017-12-24T02:36:09.193Z,86.00
2017-12-24T02:38:43.057Z,86.10
2017-12-24T02:41:17.782Z,85.90
2017-12-24T02:43:51.572Z,86.00
2017-12-24T02:46:25.333Z,86.00
2017-12-24T02:48:59.208Z,86.00
2017-12-24T02:51:34.253Z,85.90
2017-12-24T02:54:07.977Z,85.90
2017-12-24T02:56:42.522Z,86.10
2017-12-24T02:59:16.543Z,85.90
2017-12-24T03:01:50.289Z,86.20
2017-12-24T03:04:24.057Z,86.20
2017-12-24T03:06:57.735Z,85.90
2017-12-24T03:09:32.250Z,86.10
2017-12-24T03:12:05.975Z,86.00
2017-12-24T03:14:39.720Z,86.10
2017-12-24T03:17:13.416Z,85.60
2017-12-24T03:19:47.876Z,86.10
2017-12-24T03:22:21.767Z,86.20
2017-12-24T03:24:55.493Z,86.20
2017-12-24T03:27:29.165Z,85.80
2017-12-24T03:30:04.829Z,85.90
2017-12-24T03:32:38.650Z,85.90
2017-12-24T03:35:12.360Z,85.70
2017-12-24T03:37:46.059Z,86.20
2017-12-24T03:40:19.744Z,86.00
2017-12-24T03:42:53.604Z,86.20
2017-12-24T03:45:27.504Z,85.90
2017-12-24T03:48:01.244Z,86.10
2017-12-24T03:50:34.990Z,85.90
2017-12-24T03:53:09.852Z,85.90
2017-12-24T03:55:43.524Z,85.90
2017-12-24T03:58:17.377Z,85.90
2017-12-24T04:00:51.164Z,85.90
2017-12-24T04:03:25.640Z,86.10
2017-12-24T04:05:59.427Z,85.70
2017-12-24T04:08:33.876Z,86.20
2017-12-24T04:11:07.674Z,86.10
2017-12-24T04:13:42.170Z,86.10
2017-12-24T04:16:16.256Z,86.10
2017-12-24T04:18:49.984Z,86.00
2017-12-24T04:21:25.096Z,86.10
2017-12-24T04:23:58.692Z,86.10
2017-12-24T04:26:32.499Z,86.20
2017-12-24T04:29:06.052Z,86.20
2017-12-24T04:31:40.717Z,86.80
2017-12-24T04:34:14.474Z,86.30
2017-12-24T04:36:48.957Z,86.20
2017-12-24T04:39:22.731Z,86.20
2017-12-24T04:41:56.607Z,86.10
2017-12-24T04:44:30.384Z,86.30
2017-12-24T04:47:04.491Z,86.30
2017-12-24T04:49:38.297Z,86.40
2017-12-24T04:52:12.133Z,86.10
2017-12-24T04:54:46.017Z,85.60
2017-12-24T04:57:19.827Z,86.00
2017-12-24T04:59:53.537Z,86.20
2017-12-24T05:02:27.406Z,86.70
2017-12-24T05:05:01.180Z,86.80
2017-12-24T05:07:34.957Z,87.20
2017-12-24T05:10:08.605Z,87.30
2017-12-24T05:12:42.472Z,87.20
2017-12-24T05:15:16.276Z,87.20
2017-12-24T05:17:50.791Z,86.90
2017-12-24T05:20:24.357Z,86.80
2017-12-24T05:22:58.115Z,86.80
2017-12-24T05:25:31.984Z,87.00
2017-12-24T05:28:06.885Z,87.10
2017-12-24T05:30:40.622Z,87.10
2017-12-24T05:33:14.603Z,87.10
2017-12-24T05:35:48.400Z,87.20
2017-12-24T05:38:22.207Z,87.00
2017-12-24T05:40:55.989Z,87.10
2017-12-24T05:43:30.545Z,87.50
2017-12-24T05:46:04.406Z,87.50
2017-12-24T05:48:38.181Z,87.40
2017-12-24T05:51:12.004Z,87.10
2017-12-24T05:53:46.929Z,87.30
2017-12-24T05:56:20.580Z,87.20
2017-12-24T05:58:54.355Z,87.20
2017-12-24T06:01:28.029Z,86.80
2017-12-24T06:04:01.825Z,86.60
2017-12-24T06:06:35.628Z,86.70
2017-12-24T06:09:09.457Z,87.10
2017-12-24T06:11:43.321Z,87.00
2017-12-24T06:14:17.113Z,87.00
2017-12-24T06:16:51.696Z,87.10
2017-12-24T06:19:25.536Z,87.10
2017-12-24T06:21:59.328Z,87.10
2017-12-24T06:24:33.917Z,87.40
2017-12-24T06:27:07.754Z,87.40
2017-12-24T06:29:41.582Z,87.50
2017-12-24T06:32:15.352Z,87.00
2017-12-24T06:34:49.184Z,86.90
2017-12-24T06:37:23.008Z,86.70
2017-12-24T06:39:56.859Z,87.20
2017-12-24T06:42:30.681Z,87.00
2017-12-24T06:45:04.401Z,87.00
2017-12-24T06:47:38.132Z,86.40
2017-12-24T06:50:13.417Z,85.90
2017-12-24T06:52:47.180Z,85.90
2017-12-24T06:55:21.904Z,85.50
2017-12-24T06:57:55.556Z,85.50
2017-12-24T07:00:29.304Z,85.40
2017-12-24T07:03:03.773Z,85.30
2017-12-24T07:05:38.536Z,85.10
2017-12-24T07:08:12.377Z,85.10
2017-12-24T07:10:46.516Z,85.50
2017-12-24T07:13:20.239Z,85.40
2017-12-24T07:15:54.085Z,85.50
2017-12-24T07:18:27.875Z,85.60
2017-12-24T07:21:01.681Z,85.70
2017-12-24T07:23:36.159Z,85.80
2017-12-24T07:26:10.708Z,86.20
2017-12-24T07:28:45.316Z,85.80
2017-12-24T07:31:19.050Z,85.80
2017-12-24T07:33:53.621Z,85.90
2017-12-24T07:36:27.685Z,85.80
2017-12-24T07:39:01.466Z,85.60
2017-12-24T07:41:35.300Z,85.60
2017-12-24T07:44:09.144Z,85.60
2017-12-24T07:46:44.021Z,85.60
2017-12-24T07:49:18.165Z,85.60
2017-12-24T07:51:51.932Z,85.50
2017-12-24T07:54:25.747Z,85.00
2017-12-24T07:56:59.568Z,85.70
2017-12-24T07:59:33.355Z,85.60
2017-12-24T08:02:07.100Z,85.90
2017-12-24T08:04:41.280Z,86.10
2017-12-24T08:07:15.872Z,85.90
2017-12-24T08:09:49.916Z,85.90
2017-12-24T08:12:23.616Z,85.60
2017-12-24T08:14:57.460Z,84.70
2017-12-24T08:17:31.216Z,84.80
2017-12-24T08:20:04.972Z,84.50
2017-12-24T08:22:38.853Z,84.10
2017-12-24T08:25:12.676Z,83.40
2017-12-24T08:27:46.287Z,83.70
2017-12-24T08:30:20.141Z,83.70
2017-12-24T08:32:53.931Z,83.40
2017-12-24T08:35:28.497Z,83.00
2017-12-24T08:38:02.367Z,82.90
2017-12-24T08:40:36.000Z,83.00
2017-12-24T08:43:09.780Z,82.80
2017-12-24T08:45:43.795Z,83.20
2017-12-24T08:48:17.503Z,83.30
2017-12-24T08:50:51.301Z,83.40
2017-12-24T08:53:24.988Z,81.90
2017-12-24T08:55:59.549Z,81.90
2017-12-24T08:58:33.360Z,81.80
2017-12-24T09:01:07.060Z,81.80
2017-12-24T09:03:40.837Z,82.10
2017-12-24T09:06:14.711Z,82.10
2017-12-24T09:08:48.489Z,82.30
2017-12-24T09:11:23.003Z,82.10
2017-12-24T09:13:56.722Z,82.00
2017-12-24T09:16:30.381Z,82.40
2017-12-24T09:19:04.128Z,82.50
2017-12-24T09:21:37.937Z,81.80
2017-12-24T09:24:11.708Z,82.20
2017-12-24T09:26:45.597Z,82.10
2017-12-24T09:29:19.385Z,81.90
2017-12-24T09:31:53.433Z,81.90
2017-12-24T09:34:27.178Z,81.50
2017-12-24T09:37:00.928Z,81.40
2017-12-24T09:39:34.769Z,81.90
2017-12-24T09:42:08.432Z,81.70
2017-12-24T09:44:42.213Z,81.30
2017-12-24T09:47:15.984Z,81.30
2017-12-24T09:49:49.763Z,80.90
2017-12-24T09:52:24.324Z,80.30
2017-12-24T09:54:58.011Z,80.30
2017-12-24T09:57:31.775Z,80.30
2017-12-24T10:00:05.628Z,79.80
2017-12-24T10:02:40.028Z,80.70
2017-12-24T10:05:14.571Z,80.40
2017-12-24T10:07:48.245Z,80.40
2017-12-24T10:10:22.000Z,80.80
2017-12-24T10:12:55.713Z,81.00
2017-12-24T10:15:29.463Z,80.30
2017-12-24T10:18:03.200Z,80.20
2017-12-24T10:20:37.676Z,80.30
2017-12-24T10:23:11.734Z,80.30
2017-12-24T10:25:45.513Z,80.60
2017-12-24T10:28:19.345Z,79.90
2017-12-24T10:30:53.156Z,79.70
2017-12-24T10:33:27.259Z,79.70
2017-12-24T10:36:00.828Z,79.10
2017-12-24T10:38:34.790Z,79.00
2017-12-24T10:41:08.616Z,78.90
2017-12-24T10:43:42.412Z,78.70
2017-12-24T10:46:16.119Z,78.40
2017-12-24T10:48:50.839Z,77.60
2017-12-24T10:51:24.653Z,77.60
2017-12-24T10:53:58.838Z,77.80
2017-12-24T10:56:33.416Z,78.20
2017-12-24T10:59:08.108Z,78.20
2017-12-24T11:01:42.716Z,78.40
2017-12-24T11:04:16.504Z,78.30
2017-12-24T11:06:51.133Z,78.30
2017-12-24T11:09:25.846Z,78.80
2017-12-24T11:11:59.762Z,78.50
2017-12-24T11:14:33.329Z,78.20
2017-12-24T11:17:07.193Z,78.30
2017-12-24T11:19:40.883Z,78.10
2017-12-24T11:22:15.499Z,78.40
2017-12-24T11:24:50.028Z,78.50
2017-12-24T11:27:24.497Z,78.50
2017-12-24T11:29:58.129Z,78.50
2017-12-24T11:32:32.635Z,78.30
2017-12-24T11:35:06.368Z,78.20
2017-12-24T11:37:39.980Z,78.20
2017-12-24T11:40:14.938Z,78.40
2017-12-24T11:42:48.581Z,78.30
2017-12-24T11:45:23.043Z,78.00
2017-12-24T11:47:56.792Z,78.60
2017-12-24T11:50:31.386Z,77.90
2017-12-24T11:53:05.076Z,77.90
2017-12-24T11:55:38.917Z,77.70
2017-12-24T11:58:12.728Z,77.90
2017-12-24T12:00:46.443Z,77.80
2017-12-24T12:03:20.182Z,78.10
2017-12-24T12:05:54.846Z,78.30
2017-12-24T12:08:28.639Z,78.30
2017-12-24T12:11:03.328Z,77.90
2017-12-24T12:13:37.021Z,78.50
2017-12-24T12:16:11.598Z,78.50
2017-12-24T12:18:46.148Z,78.40
2017-12-24T12:21:20.073Z,78.00
2017-12-24T12:23:53.863Z,78.40
2017-12-24T12:26:27.608Z,78.10
2017-12-24T12:29:01.345Z,77.40
2017-12-24T12:31:35.042Z,78.20
2017-12-24T12:34:08.800Z,77.90
2017-12-24T12:36:42.776Z,78.20
2017-12-24T12:39:16.500Z,77.90
2017-12-24T12:41:50.244Z,78.10
2017-12-24T12:44:24.021Z,77.90
2017-12-24T12:46:57.764Z,78.60
2017-12-24T12:49:31.595Z,78.00
2017-12-24T12:52:05.331Z,78.10
2017-12-24T12:54:40.248Z,77.70
2017-12-24T12:57:13.914Z,77.70
2017-12-24T12:59:47.760Z,77.50
2017-12-24T13:02:21.388Z,77.40
2017-12-24T13:04:55.162Z,77.30
2017-12-24T13:07:28.928Z,78.50
2017-12-24T13:10:02.610Z,78.10
2017-12-24T13:12:36.292Z,78.30
2017-12-24T13:15:10.105Z,78.60
2017-12-24T13:17:43.865Z,78.60
2017-12-24T13:20:18.262Z,78.40
2017-12-24T13:22:51.884Z,78.60
2017-12-24T13:25:25.838Z,78.50
2017-12-24T13:27:59.436Z,79.00
2017-12-24T13:30:33.192Z,78.40
2017-12-24T13:33:07.052Z,78.00
2017-12-24T13:35:40.886Z,78.10
2017-12-24T13:38:14.624Z,78.40
2017-12-24T13:40:48.401Z,78.40
2017-12-24T13:43:22.243Z,78.60
2017-12-24T13:45:56.841Z,78.90
2017-12-24T13:48:30.468Z,78.60
2017-12-24T13:51:04.974Z,78.00
2017-12-24T13:53:38.552Z,78.00
2017-12-24T13:56:12.484Z,78.40
2017-12-24T13:58:46.981Z,79.10
2017-12-24T14:01:20.762Z,79.10
2017-12-24T14:03:54.483Z,79.30
2017-12-24T14:06:28.328Z,79.70
2017-12-24T14:09:02.094Z,79.40
2017-12-24T14:11:36.153Z,80.00
2017-12-24T14:14:10.627Z,81.30
2017-12-24T14:16:45.087Z,81.40
2017-12-24T14:19:18.792Z,81.40
2017-12-24T14:21:52.508Z,81.70
2017-12-24T14:24:26.280Z,81.80
2017-12-24T14:27:00.412Z,81.80
2017-12-24T14:29:34.904Z,82.50
2017-12-24T14:32:08.944Z,82.50
2017-12-24T14:34:42.651Z,82.60
2017-12-24T14:37:16.479Z,82.40
2017-12-24T14:39:50.457Z,82.50
2017-12-24T14:42:24.269Z,82.60
2017-12-24T14:44:58.673Z,83.20
2017-12-24T14:47:33.172Z,82.80
2017-12-24T14:50:07.028Z,82.70
2017-12-24T14:52:41.502Z,82.90
2017-12-24T14:55:16.005Z,82.70
2017-12-24T14:57:49.825Z,82.70
2017-12-24T15:00:23.567Z,82.80
2017-12-24T15:02:57.361Z,82.90
2017-12-24T15:05:31.136Z,82.90
2017-12-24T15:08:05.573Z,82.80
2017-12-24T15:10:39.337Z,82.80
2017-12-24T15:13:13.957Z,82.90
2017-12-24T15:15:47.651Z,82.80
2017-12-24T15:18:21.425Z,82.80
2017-12-24T15:20:55.125Z,83.20
2017-12-24T15:23:29.081Z,83.10
2017-12-24T15:26:02.940Z,83.50
2017-12-24T15:28:37.456Z,83.00
2017-12-24T15:31:11.233Z,83.00
2017-12-24T15:33:45.690Z,83.00
2017-12-24T15:36:19.440Z,83.00
2017-12-24T15:38:53.181Z,82.80
2017-12-24T15:41:27.744Z,82.80
2017-12-24T15:44:01.425Z,82.80
2017-12-24T15:46:35.205Z,82.90
2017-12-24T15:49:09.800Z,83.50
2017-12-24T15:51:43.851Z,83.50
2017-12-24T15:54:18.281Z,83.70
2017-12-24T15:56:52.024Z,83.50
2017-12-24T15:59:25.832Z,84.00
2017-12-24T16:02:00.429Z,83.60
2017-12-24T16:04:34.252Z,83.30
2017-12-24T16:07:08.064Z,83.90
2017-12-24T16:09:41.670Z,83.90
2017-12-24T16:12:15.784Z,84.10
2017-12-24T16:14:49.588Z,84.50
2017-12-24T16:17:23.392Z,83.70
2017-12-24T16:19:57.175Z,83.70
2017-12-24T16:22:30.961Z,83.60
2017-12-24T16:25:04.787Z,83.90
2017-12-24T16:27:38.828Z,83.80
2017-12-24T16:30:12.687Z,83.80
2017-12-24T16:32:46.425Z,83.80
2017-12-24T16:35:21.260Z,83.80
2017-12-24T16:37:54.933Z,83.80
2017-12-24T16:40:28.809Z,83.30
2017-12-24T16:43:02.528Z,84.60
2017-12-24T16:45:36.295Z,83.50
2017-12-24T16:48:10.133Z,83.20
2017-12-24T16:50:43.924Z,83.00
2017-12-24T16:53:18.277Z,83.20
2017-12-24T16:55:52.330Z,83.20
2017-12-24T16:58:26.805Z,83.00
2017-12-24T17:01:00.612Z,83.00
2017-12-24T17:03:34.274Z,83.00
2017-12-24T17:06:08.901Z,83.20
2017-12-24T17:08:42.718Z,83.20
2017-12-24T17:11:16.758Z,82.90
2017-12-24T17:13:50.396Z,82.80
2017-12-24T17:16:24.244Z,82.60
2017-12-24T17:18:57.956Z,82.80
2017-12-24T17:21:31.773Z,82.70
2017-12-24T17:24:05.524Z,82.80
2017-12-24T17:26:39.409Z,82.80
2017-12-24T17:29:13.143Z,82.70
2017-12-24T17:31:46.925Z,82.80
2017-12-24T17:34:20.641Z,82.70
2017-12-24T17:36:54.373Z,82.80
2017-12-24T17:39:28.131Z,83.00
2017-12-24T17:42:02.039Z,83.20
2017-12-24T17:44:35.761Z,83.00
2017-12-24T17:47:09.758Z,83.10
2017-12-24T17:49:43.416Z,83.20
2017-12-24T17:52:18.013Z,82.70
2017-12-24T17:54:52.535Z,82.80
2017-12-24T17:57:26.265Z,82.70
2017-12-24T18:00:00.024Z,83.10
2017-12-24T18:02:34.621Z,82.90
2017-12-24T18:05:08.389Z,83.10
2017-12-24T18:07:42.176Z,83.40
2017-12-24T18:10:15.884Z,83.20
2017-12-24T18:12:49.677Z,83.60
2017-12-24T18:15:23.505Z,83.60
2017-12-24T18:17:58.177Z,83.10
2017-12-24T18:20:32.018Z,83.10
2017-12-24T18:23:06.589Z,83.70
2017-12-24T18:25:40.332Z,83.60
2017-12-24T18:28:14.141Z,83.20
2017-12-24T18:30:48.820Z,83.60
2017-12-24T18:33:22.746Z,83.60
2017-12-24T18:35:56.917Z,83.30
2017-12-24T18:38:30.787Z,83.20
2017-12-24T18:41:05.497Z,83.60
2017-12-24T18:43:39.316Z,83.50
2017-12-24T18:46:13.025Z,83.30
2017-12-24T18:48:46.814Z,83.60
2017-12-24T18:51:20.681Z,83.20
2017-12-24T18:53:54.486Z,82.90
2017-12-24T18:56:28.313Z,83.20
2017-12-24T18:59:02.889Z,83.20
2017-12-24T19:01:36.756Z,83.20
2017-12-24T19:04:11.293Z,82.90
2017-12-24T19:06:45.108Z,82.80
2017-12-24T19:09:18.940Z,82.70
2017-12-24T19:11:53.505Z,82.80
2017-12-24T19:14:27.275Z,82.80
2017-12-24T19:17:01.084Z,83.10
2017-12-24T19:19:34.769Z,82.80
2017-12-24T19:22:08.469Z,82.90
2017-12-24T19:24:42.272Z,83.30
2017-12-24T19:27:17.658Z,82.80
2017-12-24T19:29:51.526Z,82.80
2017-12-24T19:32:26.042Z,82.90
2017-12-24T19:34:59.864Z,82.80
2017-12-24T19:37:33.660Z,82.40
2017-12-24T19:40:07.532Z,82.40
2017-12-24T19:42:41.269Z,83.10
2017-12-24T19:45:15.064Z,83.00
2017-12-24T19:47:48.701Z,83.10
2017-12-24T19:50:22.486Z,83.60
2017-12-24T19:52:56.325Z,83.70
2017-12-24T19:55:30.314Z,83.70
2017-12-24T19:58:04.228Z,84.00
2017-12-24T20:00:38.758Z,83.30
2017-12-24T20:03:13.326Z,83.30
2017-12-24T20:05:47.166Z,83.20
2017-12-24T20:08:21.707Z,83.30
2017-12-24T20:10:55.859Z,83.10
2017-12-24T20:13:29.643Z,83.20
2017-12-24T20:16:03.469Z,83.70
2017-12-24T20:18:38.208Z,84.30
2017-12-24T20:21:12.910Z,84.00
2017-12-24T20:23:47.035Z,84.00
2017-12-24T20:26:20.875Z,83.70
2017-12-24T20:28:54.848Z,84.30
2017-12-24T20:31:28.714Z,84.30
2017-12-24T20:34:02.650Z,84.30
2017-12-24T20:36:36.360Z,84.30
2017-12-24T20:39:10.181Z,84.70
2017-12-24T20:41:44.055Z,84.30
2017-12-24T20:44:18.102Z,83.70
2017-12-24T20:46:52.140Z,83.60
2017-12-24T20:49:26.859Z,83.40
2017-12-24T20:52:00.648Z,83.40
2017-12-24T20:54:34.679Z,83.70
2017-12-24T20:57:08.652Z,84.10
2017-12-24T20:59:42.521Z,84.00
2017-12-24T21:02:17.071Z,84.00
2017-12-24T21:04:51.889Z,83.80
2017-12-24T21:07:25.736Z,83.80
2017-12-24T21:10:00.513Z,84.30
2017-12-24T21:12:34.424Z,84.20
2017-12-24T21:15:09.129Z,84.20
2017-12-24T21:17:42.919Z,84.10
2017-12-24T21:20:16.808Z,84.30
2017-12-24T21:22:50.531Z,84.30
2017-12-24T21:25:24.363Z,84.20
2017-12-24T21:27:58.101Z,84.00
2017-12-24T21:30:32.067Z,83.80
2017-12-24T21:33:05.859Z,84.00
2017-12-24T21:35:39.663Z,83.70
2017-12-24T21:38:13.776Z,84.00
2017-12-24T21:40:47.599Z,83.70
2017-12-24T21:43:22.191Z,83.50
2017-12-24T21:45:56.195Z,83.40
2017-12-24T21:48:30.823Z,83.90
2017-12-24T21:51:05.455Z,84.10
2017-12-24T21:53:39.211Z,84.10
2017-12-24T21:56:13.511Z,83.60
2017-12-24T21:58:47.154Z,84.00
2017-12-24T22:01:20.942Z,84.10
2017-12-24T22:03:55.610Z,83.80
2017-12-24T22:06:29.490Z,83.80
2017-12-24T22:09:04.047Z,83.60
2017-12-24T22:11:38.513Z,83.30
2017-12-24T22:14:12.363Z,83.30
2017-12-24T22:16:46.173Z,83.60
2017-12-24T22:19:19.986Z,83.70
2017-12-24T22:21:54.119Z,84.20
2017-12-24T22:24:27.820Z,84.20
2017-12-24T22:27:01.640Z,84.00
2017-12-24T22:29:35.362Z,83.40
2017-12-24T22:32:09.530Z,82.80
2017-12-24T22:34:43.271Z,83.20
2017-12-24T22:37:17.136Z,83.40
2017-12-24T22:39:51.234Z,82.80
2017-12-24T22:42:24.995Z,82.80
2017-12-24T22:44:58.712Z,82.90
2017-12-24T22:47:32.456Z,82.50
2017-12-24T22:50:06.288Z,82.20
2017-12-24T22:52:40.777Z,82.70
2017-12-24T22:55:14.629Z,82.70
2017-12-24T22:57:48.350Z,82.70
2017-12-24T23:00:22.145Z,82.70
2017-12-24T23:02:56.005Z,82.80
2017-12-24T23:05:30.644Z,82.40
2017-12-24T23:08:04.535Z,82.30
2017-12-24T23:10:38.492Z,82.10
2017-12-24T23:13:12.465Z,82.10
2017-12-24T23:15:46.251Z,82.00
2017-12-24T23:18:20.092Z,82.20
2017-12-24T23:20:54.035Z,82.10
2017-12-24T23:23:28.634Z,82.60
2017-12-24T23:26:02.414Z,82.50
2017-12-24T23:28:37.101Z,82.30
2017-12-24T23:31:10.817Z,82.30
2017-12-24T23:33:45.424Z,82.10
2017-12-24T23:36:19.897Z,82.30
2017-12-24T23:38:53.632Z,82.30
2017-12-24T23:41:27.452Z,82.50
2017-12-24T23:44:01.039Z,82.30
2017-12-24T23:46:35.179Z,82.50
2017-12-24T23:49:08.894Z,82.50
2017-12-24T23:51:43.364Z,83.00
2017-12-24T23:54:17.290Z,83.00
2017-12-24T23:56:51.052Z,83.30
2017-12-24T23:59:25.082Z,83.10
